Time;durP1;ratioP1;P1;durP2;ratioP2;P2;SDS_P1;SDS_P2;PMS_P1;PMS_P2;Temp;Humidity;BMP_temperature;BMP_pressure;BME280_temperature;BME280_humidity;BME280_pressure;Samples;Min_cycle;Max_cycle;Signal;HPM_P1;HPM_P2
2024/03/01 00:01:51;;;;;;;3.40;3.30;;;12.60;99.90;;;;;;5065966;28;20504;-77
2024/03/01 00:04:17;;;;;;;0.30;0.27;;;12.60;99.90;;;;;;5065699;28;20700;-77
2024/03/01 00:06:43;;;;;;;0.40;0.20;;;12.60;99.90;;;;;;5066590;28;20411;-77
2024/03/01 00:09:09;;;;;;;15.27;14.77;;;12.50;99.90;;;;;;5067479;28;20445;-77
2024/03/01 00:11:35;;;;;;;2.57;1.60;;;12.50;99.90;;;;;;5066851;28;20173;-77
2024/03/01 00:14:01;;;;;;;0.70;0.70;;;12.60;99.90;;;;;;5066811;28;20488;-77
2024/03/01 00:16:27;;;;;;;0.30;0.20;;;12.50;99.90;;;;;;5066885;28;20169;-77
2024/03/01 00:18:53;;;;;;;3.23;2.93;;;12.50;99.90;;;;;;5067509;28;20700;-77
2024/03/01 00:21:18;;;;;;;1.90;1.80;;;12.50;99.90;;;;;;5066607;28;20394;-77
2024/03/01 00:23:44;;;;;;;0.40;0.33;;;12.50;99.90;;;;;;5066973;28;20706;-77
2024/03/01 00:26:10;;;;;;;0.40;0.20;;;12.50;99.90;;;;;;5066659;28;20176;-77
2024/03/01 00:28:36;;;;;;;0.30;0.20;;;12.50;99.90;;;;;;5067103;28;20445;-77
2024/03/01 00:31:03;;;;;;;1.03;1.03;;;12.40;99.90;;;;;;5065474;28;20260;-77
2024/03/01 00:33:29;;;;;;;6.77;6.30;;;12.40;99.90;;;;;;5066210;28;20868;-77
2024/03/01 00:35:55;;;;;;;1.10;1.10;;;12.40;99.90;;;;;;5066687;28;20402;-77
2024/03/01 00:38:21;;;;;;;0.40;0.40;;;12.40;99.90;;;;;;5066329;28;20599;-77
2024/03/01 00:40:47;;;;;;;0.43;0.40;;;12.40;99.90;;;;;;5066574;28;20177;-77
2024/03/01 00:43:13;;;;;;;38.40;3.40;;;12.30;99.90;;;;;;5064851;28;20584;-77
2024/03/01 00:45:39;;;;;;;0.40;0.30;;;12.30;99.90;;;;;;5065849;28;20806;-77
2024/03/01 00:48:09;;;;;;;0.83;0.83;;;12.30;99.90;;;;;;5065384;28;20674;-77
2024/03/01 00:50:35;;;;;;;0.40;0.20;;;12.30;99.90;;;;;;5065071;28;20436;-77
2024/03/01 00:53:01;;;;;;;0.70;0.70;;;12.20;99.90;;;;;;5065923;28;20872;-77
2024/03/01 00:55:27;;;;;;;0.40;0.20;;;12.20;99.90;;;;;;5066361;28;20598;-77
2024/03/01 00:57:52;;;;;;;0.40;0.20;;;12.10;99.90;;;;;;5066205;28;20434;-77
2024/03/01 01:00:18;;;;;;;1.63;1.63;;;12.10;99.90;;;;;;5064659;28;20180;-77
2024/03/01 01:02:44;;;;;;;2.80;2.70;;;12.10;99.90;;;;;;5066179;28;20207;-77
2024/03/01 01:05:11;;;;;;;0.60;0.60;;;12.10;99.90;;;;;;5065764;28;20499;-77
2024/03/01 01:07:37;;;;;;;9.80;9.35;;;12.00;99.90;;;;;;5065542;28;20658;-77
2024/03/01 01:10:04;;;;;;;0.50;0.50;;;12.00;99.90;;;;;;5065238;28;20411;-77
2024/03/01 01:12:30;;;;;;;2.37;2.27;;;12.00;99.90;;;;;;5065324;28;20755;-77
2024/03/01 01:14:56;;;;;;;1.23;1.23;;;11.90;99.90;;;;;;5066233;28;21183;-77
2024/03/01 01:17:21;;;;;;;1.20;1.20;;;11.90;99.90;;;;;;5064219;28;20217;-77
2024/03/01 01:19:47;;;;;;;0.30;0.20;;;11.90;99.90;;;;;;5065949;28;20173;-77
2024/03/01 01:22:13;;;;;;;0.83;0.83;;;11.90;99.90;;;;;;5065388;28;20438;-77
2024/03/01 01:24:38;;;;;;;1.33;1.23;;;11.90;99.90;;;;;;5064626;28;20181;-77
2024/03/01 01:27:04;;;;;;;3.30;3.20;;;11.90;99.90;;;;;;5063634;28;20173;-77
2024/03/01 01:29:30;;;;;;;0.30;0.20;;;11.90;99.90;;;;;;5064365;28;20470;-77
2024/03/01 01:31:56;;;;;;;0.30;0.30;;;11.90;99.90;;;;;;5064125;28;20414;-77
2024/03/01 01:34:21;;;;;;;0.97;0.97;;;12.00;99.90;;;;;;5063904;28;20687;-77
2024/03/01 01:36:47;;;;;;;3.80;3.50;;;12.00;99.90;;;;;;5065475;28;20410;-77
2024/03/01 01:39:13;;;;;;;6.37;5.83;;;12.00;99.90;;;;;;5064339;28;20204;-77
2024/03/01 01:41:38;;;;;;;0.33;0.30;;;12.00;99.90;;;;;;5065354;28;20177;-77
2024/03/01 01:44:04;;;;;;;0.30;0.20;;;12.00;99.90;;;;;;5065244;28;20246;-77
2024/03/01 01:46:30;;;;;;;0.40;0.20;;;12.00;99.90;;;;;;5065472;28;20176;-77
2024/03/01 01:48:57;;;;;;;0.30;0.20;;;12.10;99.90;;;;;;5063049;28;20480;-77
2024/03/01 01:51:23;;;;;;;0.40;0.20;;;12.00;99.90;;;;;;5063839;28;20177;-77
2024/03/01 01:53:49;;;;;;;0.30;0.20;;;12.10;99.90;;;;;;5065356;28;20237;-77
2024/03/01 01:56:14;;;;;;;1.13;1.10;;;12.10;99.90;;;;;;5065091;28;20220;-77
2024/03/01 01:58:43;;;;;;;0.40;0.40;;;12.10;99.90;;;;;;5065924;28;20211;-77
2024/03/01 02:01:09;;;;;;;0.40;0.30;;;12.10;99.90;;;;;;5063718;28;20663;-77
2024/03/01 02:03:38;;;;;;;3.77;3.60;;;12.10;99.90;;;;;;5064077;28;20457;-77
2024/03/01 02:06:05;;;;;;;0.37;0.30;;;12.10;99.90;;;;;;5064795;28;20895;-77
2024/03/01 02:08:35;;;;;;;0.30;0.20;;;12.10;99.90;;;;;;5063752;28;20815;-77
2024/03/01 02:11:02;;;;;;;0.30;0.20;;;12.10;99.90;;;;;;5065138;28;20398;-77
2024/03/01 02:13:28;;;;;;;0.30;0.20;;;12.20;99.90;;;;;;5064962;28;20489;-77
2024/03/01 02:15:55;;;;;;;1.00;0.93;;;12.20;99.90;;;;;;5063780;28;20402;-77
2024/03/01 02:18:21;;;;;;;9.93;9.30;;;12.20;99.90;;;;;;5065090;28;20441;-77
2024/03/01 02:20:53;;;;;;;0.73;0.73;;;12.10;99.90;;;;;;5066122;28;20398;-77
2024/03/01 02:23:22;;;;;;;0.60;0.60;;;12.10;99.90;;;;;;5069008;28;20438;-77
2024/03/01 02:25:48;;;;;;;2.87;2.67;;;12.10;99.90;;;;;;5069374;28;20406;-77
2024/03/01 02:28:13;;;;;;;0.30;0.20;;;12.10;99.90;;;;;;5068581;28;20446;-77
2024/03/01 02:30:39;;;;;;;1.53;1.43;;;12.10;99.90;;;;;;5069238;28;20248;-77
2024/03/01 02:33:05;;;;;;;0.30;0.20;;;12.10;99.90;;;;;;5068425;28;20673;-78
2024/03/01 02:35:31;;;;;;;0.33;0.33;;;12.20;99.90;;;;;;5068737;28;20173;-77
2024/03/01 02:37:56;;;;;;;21.87;21.07;;;12.20;99.90;;;;;;5067431;28;20208;-77
2024/03/01 02:40:22;;;;;;;0.50;0.50;;;12.20;99.90;;;;;;5069226;28;20922;-77
2024/03/01 02:42:47;;;;;;;1.03;0.97;;;12.20;99.90;;;;;;5068597;28;20447;-77
2024/03/01 02:45:13;;;;;;;2.20;1.30;;;12.20;99.90;;;;;;5067377;28;20680;-77
2024/03/01 02:47:39;;;;;;;3.33;2.33;;;12.30;99.90;;;;;;5066932;28;20205;-77
2024/03/01 02:50:08;;;;;;;0.30;0.30;;;12.30;99.90;;;;;;5068642;28;20405;-77
2024/03/01 02:52:35;;;;;;;0.67;0.67;;;12.30;99.90;;;;;;5066190;28;20284;-77
2024/03/01 02:55:01;;;;;;;0.57;0.57;;;12.30;99.90;;;;;;5068176;28;20473;-77
2024/03/01 02:57:27;;;;;;;4.43;4.13;;;12.30;99.90;;;;;;5068699;28;20401;-77
2024/03/01 02:59:53;;;;;;;0.30;0.20;;;12.30;99.90;;;;;;5068524;28;20463;-77
2024/03/01 03:02:18;;;;;;;0.30;0.20;;;12.30;99.90;;;;;;5066711;28;20410;-77
2024/03/01 03:04:44;;;;;;;0.30;0.20;;;12.30;99.90;;;;;;5068366;28;20253;-77
2024/03/01 03:07:10;;;;;;;0.37;0.30;;;12.40;99.90;;;;;;5067698;28;20181;-77
2024/03/01 03:09:41;;;;;;;0.30;0.30;;;12.40;99.90;;;;;;5067971;28;20650;-77
2024/03/01 03:12:06;;;;;;;0.37;0.33;;;12.40;99.90;;;;;;5066308;28;20426;-77
2024/03/01 03:14:32;;;;;;;0.60;0.60;;;12.40;99.90;;;;;;5068506;28;20500;-77
2024/03/01 03:16:58;;;;;;;2.43;2.33;;;12.40;99.90;;;;;;5068121;28;20178;-77
2024/03/01 03:19:24;;;;;;;0.77;0.77;;;12.50;99.90;;;;;;5068545;28;20441;-77
2024/03/01 03:21:49;;;;;;;0.70;0.70;;;12.50;99.90;;;;;;5067923;28;20680;-77
2024/03/01 03:24:15;;;;;;;0.30;0.20;;;12.50;99.90;;;;;;5066504;28;20471;-77
2024/03/01 03:26:40;;;;;;;0.57;0.57;;;12.50;99.90;;;;;;5066709;28;20654;-77
2024/03/01 03:29:06;;;;;;;0.30;0.20;;;12.50;99.90;;;;;;5067795;28;20205;-77
2024/03/01 03:31:32;;;;;;;0.30;0.20;;;12.40;99.90;;;;;;5067392;28;20322;-77
2024/03/01 03:33:58;;;;;;;0.47;0.47;;;12.40;99.90;;;;;;5067733;28;20217;-77
2024/03/01 03:36:24;;;;;;;0.30;0.20;;;12.40;99.90;;;;;;5067350;28;20181;-77
2024/03/01 03:38:49;;;;;;;1.80;1.70;;;12.40;99.90;;;;;;5067982;28;20190;-77
2024/03/01 03:41:15;;;;;;;0.40;0.40;;;12.40;99.90;;;;;;5067433;28;20413;-77
2024/03/01 03:43:41;;;;;;;0.30;0.20;;;12.40;99.90;;;;;;5068227;28;20197;-77
2024/03/01 03:46:06;;;;;;;0.30;0.30;;;12.40;99.90;;;;;;5065852;28;20271;-77
2024/03/01 03:48:33;;;;;;;2.77;2.60;;;12.40;99.90;;;;;;5066319;28;20626;-77
2024/03/01 03:50:59;;;;;;;0.30;0.30;;;12.40;99.90;;;;;;5067562;28;20382;-77
2024/03/01 03:53:25;;;;;;;0.30;0.20;;;12.30;99.90;;;;;;5066643;28;20568;-77
2024/03/01 03:55:51;;;;;;;0.40;0.40;;;12.30;99.90;;;;;;5067299;28;20207;-77
2024/03/01 03:58:16;;;;;;;0.30;0.20;;;12.30;99.90;;;;;;5067253;28;20677;-77
2024/03/01 04:00:43;;;;;;;0.30;0.30;;;12.30;99.90;;;;;;5067727;28;20641;-77
2024/03/01 04:03:09;;;;;;;1.17;1.07;;;12.30;99.90;;;;;;5065428;28;20239;-77
2024/03/01 04:05:35;;;;;;;0.30;0.20;;;12.30;99.90;;;;;;5067370;28;20441;-77
2024/03/01 04:08:00;;;;;;;0.77;0.77;;;12.30;99.90;;;;;;5065281;28;20351;-77
2024/03/01 04:10:26;;;;;;;0.70;0.70;;;12.30;99.90;;;;;;5067562;28;20410;-77
2024/03/01 04:12:52;;;;;;;0.30;0.20;;;12.30;99.90;;;;;;5065407;28;20251;-77
2024/03/01 04:15:17;;;;;;;0.43;0.40;;;12.30;99.90;;;;;;5066719;28;20580;-77
2024/03/01 04:17:44;;;;;;;0.40;0.40;;;12.30;99.90;;;;;;5065514;28;20698;-77
2024/03/01 04:20:10;;;;;;;1.57;1.03;;;12.30;99.90;;;;;;5066846;28;20498;-78
2024/03/01 04:22:36;;;;;;;0.40;0.30;;;12.20;99.90;;;;;;5066855;28;20837;-77
2024/03/01 04:25:02;;;;;;;0.77;0.77;;;12.20;99.90;;;;;;5065299;28;20425;-77
2024/03/01 04:27:28;;;;;;;2.10;1.43;;;12.20;99.90;;;;;;5066504;28;20478;-77
2024/03/01 04:29:56;;;;;;;0.30;0.30;;;12.20;99.90;;;;;;5066613;28;20474;-77
2024/03/01 04:32:21;;;;;;;0.30;0.20;;;12.20;99.90;;;;;;5066194;28;20414;-77
2024/03/01 04:34:47;;;;;;;1.53;1.53;;;12.20;99.90;;;;;;5066734;28;20384;-78
2024/03/01 04:37:14;;;;;;;2.40;2.30;;;12.20;99.90;;;;;;5064627;28;20235;-77
2024/03/01 04:39:40;;;;;;;5.30;5.10;;;12.20;99.90;;;;;;5065513;28;20672;-77
2024/03/01 04:42:06;;;;;;;0.30;0.20;;;12.20;99.90;;;;;;5066097;28;20425;-77
2024/03/01 04:44:31;;;;;;;0.90;0.90;;;12.30;99.90;;;;;;5064306;28;20825;-77
2024/03/01 04:46:57;;;;;;;0.30;0.20;;;12.30;99.90;;;;;;5066015;28;20681;-76
2024/03/01 04:49:22;;;;;;;0.30;0.30;;;12.40;99.90;;;;;;5066012;28;20221;-77
2024/03/01 04:51:48;;;;;;;0.50;0.50;;;12.40;99.90;;;;;;5066275;28;20248;-77
2024/03/01 04:54:14;;;;;;;1.27;1.17;;;12.50;99.90;;;;;;5065087;28;20271;-77
2024/03/01 04:56:39;;;;;;;0.97;0.97;;;12.50;99.90;;;;;;5065957;28;20177;-77
2024/03/01 04:59:08;;;;;;;3.60;3.43;;;12.60;99.90;;;;;;5066321;28;20203;-77
2024/03/01 05:01:39;;;;;;;0.40;0.40;;;12.60;99.90;;;;;;5065311;28;20646;-77
2024/03/01 05:04:08;;;;;;;8.60;3.80;;;12.60;99.90;;;;;;5063668;28;21145;-77
2024/03/01 05:06:36;;;;;;;1.33;1.33;;;12.60;99.90;;;;;;5065426;28;20406;-77
2024/03/01 05:09:02;;;;;;;0.30;0.20;;;12.70;99.90;;;;;;5065448;28;20616;-77
2024/03/01 05:11:33;;;;;;;0.40;0.30;;;12.70;99.90;;;;;;5064202;28;20410;-77
2024/03/01 05:13:59;;;;;;;0.60;0.60;;;12.70;99.90;;;;;;5063871;28;21032;-77
2024/03/01 05:16:25;;;;;;;0.40;0.40;;;12.70;99.90;;;;;;5064161;28;20418;-77
2024/03/01 05:18:51;;;;;;;0.30;0.20;;;12.70;99.90;;;;;;5064989;28;20473;-77
2024/03/01 05:21:17;;;;;;;1.80;1.63;;;12.70;99.90;;;;;;5064567;28;20696;-77
2024/03/01 05:23:43;;;;;;;2.20;2.10;;;12.70;99.90;;;;;;5073591;28;20472;-77
2024/03/01 05:26:09;;;;;;;0.73;0.67;;;12.70;99.90;;;;;;5084725;28;20268;-78
2024/03/01 05:28:35;;;;;;;0.30;0.20;;;12.70;99.90;;;;;;5064277;28;20536;-77
2024/03/01 05:31:01;;;;;;;1.90;1.80;;;12.70;99.90;;;;;;5064922;28;20481;-77
2024/03/01 05:33:28;;;;;;;3.70;2.90;;;12.70;99.90;;;;;;5063544;28;20489;-77
2024/03/01 05:35:53;;;;;;;0.30;0.20;;;12.70;99.90;;;;;;5063037;28;20555;-77
2024/03/01 05:38:19;;;;;;;1.27;1.27;;;12.70;99.90;;;;;;5070262;28;20441;-77
2024/03/01 05:40:46;;;;;;;1.93;1.83;;;12.80;99.90;;;;;;5082735;28;20180;-77
2024/03/01 05:43:12;;;;;;;0.30;0.20;;;12.80;99.90;;;;;;5076733;28;20208;-78
2024/03/01 05:45:39;;;;;;;0.80;0.80;;;12.80;99.90;;;;;;5070896;28;20405;-77
2024/03/01 05:48:10;;;;;;;0.30;0.20;;;12.90;99.90;;;;;;5066589;28;20200;-77
2024/03/01 05:50:36;;;;;;;0.80;0.80;;;12.90;99.90;;;;;;5063613;28;20735;-77
2024/03/01 05:53:02;;;;;;;0.30;0.20;;;12.90;99.90;;;;;;5067786;28;20517;-77
2024/03/01 05:55:28;;;;;;;0.40;0.40;;;12.90;99.90;;;;;;5063650;28;20188;-77
2024/03/01 05:57:53;;;;;;;1.10;1.10;;;12.90;99.90;;;;;;5068549;28;20441;-77
2024/03/01 06:00:25;;;;;;;1.33;1.30;;;13.00;99.90;;;;;;5080907;28;20175;-77
2024/03/01 06:02:51;;;;;;;0.30;0.20;;;13.00;99.90;;;;;;5081025;28;20215;-77
2024/03/01 06:05:17;;;;;;;12.27;11.67;;;13.00;99.90;;;;;;5073178;28;20421;-77
2024/03/01 06:07:44;;;;;;;0.30;0.30;;;13.00;99.90;;;;;;5071018;28;20836;-77
2024/03/01 06:10:10;;;;;;;0.30;0.20;;;13.00;99.90;;;;;;5074559;28;20417;-77
2024/03/01 06:12:36;;;;;;;0.30;0.20;;;13.00;99.90;;;;;;5060896;28;20642;-77
2024/03/01 06:15:04;;;;;;;0.30;0.30;;;12.90;99.90;;;;;;5071985;28;20510;-77
2024/03/01 06:17:30;;;;;;;0.30;0.20;;;12.90;99.90;;;;;;5083125;28;20723;-77
2024/03/01 06:19:55;;;;;;;0.30;0.30;;;12.90;99.90;;;;;;5082043;28;20417;-77
2024/03/01 06:22:21;;;;;;;0.30;0.23;;;12.80;99.90;;;;;;5082491;28;20797;-77
2024/03/01 06:24:47;;;;;;;1.50;1.40;;;12.80;99.90;;;;;;5081763;28;20184;-77
2024/03/01 06:27:13;;;;;;;1.60;1.60;;;12.80;99.90;;;;;;5080830;28;20711;-77
2024/03/01 06:29:39;;;;;;;0.30;0.20;;;12.80;99.90;;;;;;5081677;28;20455;-77
2024/03/01 06:32:05;;;;;;;0.30;0.30;;;12.80;99.90;;;;;;5075589;28;20432;-77
2024/03/01 06:34:31;;;;;;;0.40;0.20;;;12.80;99.90;;;;;;5074822;28;20216;-77
2024/03/01 06:36:57;;;;;;;0.40;0.30;;;12.80;99.90;;;;;;5082469;28;20417;-77
2024/03/01 06:39:22;;;;;;;0.40;0.30;;;12.80;99.90;;;;;;5082150;28;20464;-77
2024/03/01 06:41:48;;;;;;;0.30;0.20;;;12.80;99.90;;;;;;5083689;28;20225;-77
2024/03/01 06:44:14;;;;;;;0.30;0.20;;;12.80;99.90;;;;;;5079307;28;20207;-77
2024/03/01 06:46:40;;;;;;;0.90;0.90;;;12.80;99.90;;;;;;5078235;28;20471;-77
2024/03/01 06:49:06;;;;;;;0.30;0.20;;;12.80;99.90;;;;;;5073044;28;20786;-77
2024/03/01 06:51:32;;;;;;;1.57;1.50;;;12.90;99.90;;;;;;5071768;28;20973;-76
2024/03/01 06:53:57;;;;;;;0.30;0.20;;;12.90;99.90;;;;;;5065259;28;20509;-77
2024/03/01 06:56:23;;;;;;;0.30;0.20;;;12.90;99.90;;;;;;5063892;28;20173;-77
2024/03/01 06:58:50;;;;;;;0.53;0.53;;;12.90;99.90;;;;;;5061348;28;20204;-77
2024/03/01 07:01:16;;;;;;;0.30;0.20;;;13.00;99.90;;;;;;5069925;28;20177;-77
2024/03/01 07:03:42;;;;;;;40.97;8.37;;;13.00;99.90;;;;;;5078606;28;20464;-77
2024/03/01 07:06:08;;;;;;;0.30;0.20;;;13.00;99.90;;;;;;5080305;28;20921;-77
2024/03/01 07:08:33;;;;;;;0.30;0.20;;;13.00;99.90;;;;;;5081792;28;20503;-77
2024/03/01 07:10:59;;;;;;;2.43;2.33;;;13.00;99.90;;;;;;5082987;28;20191;-77
2024/03/01 07:13:25;;;;;;;0.30;0.20;;;13.00;99.90;;;;;;5081366;28;20523;-77
2024/03/01 07:15:51;;;;;;;9.17;5.90;;;13.00;99.90;;;;;;5080668;28;20613;-77
2024/03/01 07:18:16;;;;;;;0.40;0.30;;;13.10;99.90;;;;;;5083867;28;20208;-77
2024/03/01 07:20:42;;;;;;;0.97;0.97;;;13.10;99.90;;;;;;5083226;28;21061;-77
2024/03/01 07:23:08;;;;;;;1.60;1.60;;;13.10;99.90;;;;;;5079846;28;20219;-77
2024/03/01 07:25:34;;;;;;;0.97;0.97;;;13.20;99.90;;;;;;5081033;28;21040;-79
2024/03/01 07:28:01;;;;;;;0.40;0.30;;;13.20;99.90;;;;;;5081907;28;20689;-77
2024/03/01 07:30:26;;;;;;;0.30;0.20;;;13.30;99.90;;;;;;5075379;28;20399;-77
2024/03/01 07:32:53;;;;;;;1.43;1.33;;;13.40;99.90;;;;;;5076907;28;20868;-77
2024/03/01 07:35:19;;;;;;;0.30;0.20;;;13.40;99.90;;;;;;5080183;28;20508;-77
2024/03/01 07:37:44;;;;;;;0.30;0.20;;;13.50;99.90;;;;;;5083128;28;20492;-77
2024/03/01 07:40:11;;;;;;;0.30;0.20;;;13.50;99.90;;;;;;5081941;28;20506;-77
2024/03/01 07:42:36;;;;;;;10.43;2.20;;;13.50;99.90;;;;;;5080615;28;20204;-77
2024/03/01 07:45:04;;;;;;;0.50;0.50;;;13.60;99.90;;;;;;5082037;28;20474;-77
2024/03/01 07:47:31;;;;;;;0.70;0.70;;;13.60;99.90;;;;;;5074145;28;20197;-77
2024/03/01 07:49:57;;;;;;;0.30;0.20;;;13.60;99.90;;;;;;5073300;28;20428;-77
2024/03/01 07:52:27;;;;;;;4.20;4.00;;;13.70;99.90;;;;;;5072403;28;20463;-77
2024/03/01 07:54:53;;;;;;;1.53;1.53;;;13.70;99.90;;;;;;5072820;28;20557;-77
2024/03/01 07:57:19;;;;;;;0.30;0.30;;;13.70;99.90;;;;;;5077516;28;20943;-77
2024/03/01 07:59:44;;;;;;;0.30;0.20;;;13.70;99.90;;;;;;5072513;28;20211;-77
2024/03/01 08:02:13;;;;;;;0.83;0.77;;;13.80;99.90;;;;;;5073807;28;20385;-77
2024/03/01 08:04:39;;;;;;;0.33;0.30;;;13.80;99.90;;;;;;5078618;28;20188;-77
2024/03/01 08:07:06;;;;;;;0.93;0.93;;;13.90;99.90;;;;;;5073061;28;20413;-77
2024/03/01 08:09:39;;;;;;;0.30;0.30;;;13.90;99.90;;;;;;5075476;28;20449;-77
2024/03/01 08:12:09;;;;;;;0.50;0.50;;;13.90;99.90;;;;;;5071127;28;20455;-77
2024/03/01 08:14:35;;;;;;;2.20;2.10;;;14.00;99.90;;;;;;5085584;28;20480;-77
2024/03/01 08:17:00;;;;;;;0.30;0.20;;;14.00;99.90;;;;;;5078168;28;20596;-77
2024/03/01 08:19:56;;;;;;;0.30;0.20;;;13.90;99.90;;;;;;5077759;28;20529;-78
2024/03/01 08:22:21;;;;;;;7.87;1.60;;;13.90;99.90;;;;;;5078482;28;20919;-78
2024/03/01 08:24:49;;;;;;;0.30;0.20;;;14.00;99.90;;;;;;5079554;28;20722;-77
2024/03/01 08:27:21;;;;;;;0.77;0.77;;;14.10;99.90;;;;;;5080424;28;20413;-77
2024/03/01 08:29:47;;;;;;;0.30;0.20;;;14.10;99.90;;;;;;5071797;28;20753;-78
2024/03/01 08:32:38;;;;;;;0.30;0.30;;;14.10;99.90;;;;;;5075203;28;20413;-77
2024/03/01 08:35:04;;;;;;;0.30;0.20;;;14.10;99.90;;;;;;5081521;28;20481;-77
2024/03/01 08:37:31;;;;;;;0.30;0.20;;;14.00;99.90;;;;;;5082688;28;20754;-77
2024/03/01 08:39:57;;;;;;;0.80;0.80;;;13.90;99.90;;;;;;5083027;28;20839;-77
2024/03/01 08:42:24;;;;;;;0.30;0.30;;;13.90;99.90;;;;;;5064408;28;20751;-77
2024/03/01 08:44:59;;;;;;;0.30;0.20;;;13.90;99.90;;;;;;5071483;28;20421;-77
2024/03/01 08:47:28;;;;;;;0.60;0.60;;;13.90;99.90;;;;;;5078198;28;20448;-77
2024/03/01 08:50:23;;;;;;;0.40;0.40;;;13.90;99.90;;;;;;5074461;28;20854;-77
2024/03/01 08:52:49;;;;;;;0.30;0.30;;;14.00;99.90;;;;;;5074168;28;21052;-78
2024/03/01 08:55:20;;;;;;;0.77;0.77;;;14.00;99.90;;;;;;5068913;28;20910;-78
2024/03/01 08:57:47;;;;;;;2.30;2.20;;;14.00;99.90;;;;;;5069396;28;20449;-78
2024/03/01 09:00:37;;;;;;;0.40;0.30;;;14.00;99.90;;;;;;5075401;28;20960;-78
2024/03/01 09:03:04;;;;;;;0.30;0.30;;;14.00;99.90;;;;;;5072452;28;20567;-77
2024/03/01 09:05:30;;;;;;;1.30;1.20;;;14.00;99.90;;;;;;5080737;28;20428;-77
2024/03/01 09:08:00;;;;;;;0.30;0.30;;;14.10;99.90;;;;;;5077539;28;20473;-77
2024/03/01 09:10:33;;;;;;;0.63;0.63;;;14.00;99.90;;;;;;5080926;28;20499;-80
2024/03/01 09:12:59;;;;;;;4.83;4.43;;;14.10;99.90;;;;;;5072355;28;20473;-80
2024/03/01 09:15:30;;;;;;;2.50;2.20;;;14.10;99.90;;;;;;5057727;28;20610;-79
2024/03/01 09:17:55;;;;;;;0.73;0.73;;;14.00;99.90;;;;;;5079049;28;21048;-78
2024/03/01 09:20:36;;;;;;;0.30;0.20;;;14.10;99.90;;;;;;5075967;28;20794;-79
2024/03/01 09:23:05;;;;;;;0.50;0.50;;;14.10;99.90;;;;;;5074809;28;20281;-79
2024/03/01 09:26:02;;;;;;;2.00;1.90;;;14.10;99.90;;;;;;5071895;28;20436;-79
2024/03/01 09:28:28;;;;;;;1.00;1.00;;;14.00;99.90;;;;;;5068470;28;20464;-78
2024/03/01 09:30:55;;;;;;;1.13;1.13;;;14.10;99.90;;;;;;5076535;28;20529;-77
2024/03/01 09:33:23;;;;;;;0.30;0.20;;;14.10;99.90;;;;;;5075082;28;20469;-77
2024/03/01 09:35:52;;;;;;;0.70;0.70;;;14.10;99.90;;;;;;5076728;28;20432;-77
2024/03/01 09:38:23;;;;;;;0.30;0.20;;;14.10;99.90;;;;;;5072046;28;20585;-77
2024/03/01 09:40:57;;;;;;;0.30;0.30;;;14.10;99.90;;;;;;5069813;28;20421;-77
2024/03/01 09:43:52;;;;;;;0.63;0.63;;;14.10;99.90;;;;;;5072640;28;20456;-77
2024/03/01 09:46:35;;;;;;;0.30;0.20;;;14.10;99.90;;;;;;5071317;28;20520;-77
2024/03/01 09:49:13;;;;;;;3.23;3.13;;;14.10;99.90;;;;;;5073659;28;21024;-77
2024/03/01 09:52:03;;;;;;;0.93;0.93;;;14.10;99.90;;;;;;5072410;28;20478;-77
2024/03/01 09:54:36;;;;;;;0.30;0.30;;;14.20;99.90;;;;;;5076809;28;20621;-78
2024/03/01 09:57:07;;;;;;;0.30;0.20;;;14.20;99.90;;;;;;5077994;28;20518;-78
2024/03/01 10:00:00;;;;;;;1.13;0.70;;;14.20;99.90;;;;;;5079662;28;20810;-77
2024/03/01 10:02:40;;;;;;;0.30;0.20;;;14.30;99.90;;;;;;5080141;28;20533;-77
2024/03/01 10:05:22;;;;;;;0.63;0.63;;;14.40;99.90;;;;;;5072679;28;20437;-77
2024/03/01 10:08:13;;;;;;;0.57;0.57;;;14.50;99.90;;;;;;5073724;28;20608;-78
2024/03/01 10:10:59;;;;;;;1.80;1.43;;;14.50;99.90;;;;;;5069948;28;20652;-78
2024/03/01 10:13:41;;;;;;;0.57;0.57;;;14.60;99.90;;;;;;5071375;28;20942;-77
2024/03/01 10:16:25;;;;;;;1.47;1.37;;;14.80;99.90;;;;;;5074015;28;20433;-77
2024/03/01 10:19:18;;;;;;;0.30;0.20;;;15.00;99.90;;;;;;5072713;28;20464;-78
2024/03/01 10:22:16;;;;;;;1.83;1.40;;;15.20;99.90;;;;;;5069096;28;20862;-78
2024/03/01 10:25:05;;;;;;;1.30;1.30;;;15.40;99.90;;;;;;5067738;28;21024;-78
2024/03/01 10:27:38;;;;;;;0.30;0.30;;;15.50;99.90;;;;;;5077579;28;20441;-78
2024/03/01 10:30:18;;;;;;;0.30;0.20;;;15.60;99.90;;;;;;5079171;28;20454;-78
2024/03/01 10:33:03;;;;;;;0.30;0.20;;;15.60;99.90;;;;;;5071722;28;20483;-78
2024/03/01 10:35:47;;;;;;;0.30;0.20;;;15.60;99.90;;;;;;5076780;28;20483;-78
2024/03/01 10:39:09;;;;;;;1.73;1.70;;;15.60;99.90;;;;;;5073854;28;21035;-78
2024/03/01 10:42:05;;;;;;;0.30;0.20;;;15.60;99.90;;;;;;5062789;28;20510;-77
2024/03/01 10:44:45;;;;;;;0.30;0.20;;;15.60;99.90;;;;;;5073591;28;20505;-78
2024/03/01 10:47:21;;;;;;;0.70;0.70;;;15.60;99.90;;;;;;5082897;28;20437;-78
2024/03/01 10:49:59;;;;;;;0.30;0.20;;;15.50;99.90;;;;;;5081645;28;20452;-77
2024/03/01 10:52:32;;;;;;;0.30;0.20;;;15.50;99.90;;;;;;5072732;28;20869;-77
2024/03/01 10:54:59;;;;;;;0.40;0.30;;;15.60;99.90;;;;;;5079941;28;21004;-77
2024/03/01 10:57:27;;;;;;;0.30;0.20;;;15.60;99.90;;;;;;5072818;28;20963;-77
2024/03/01 11:00:06;;;;;;;0.30;0.20;;;15.80;99.90;;;;;;5074673;28;20424;-77
2024/03/01 11:02:44;;;;;;;0.30;0.20;;;15.90;99.90;;;;;;5081626;28;20602;-78
2024/03/01 11:05:27;;;;;;;0.53;0.53;;;16.00;99.90;;;;;;5078269;28;20770;-78
2024/03/01 11:08:08;;;;;;;0.60;0.60;;;16.20;99.90;;;;;;5075443;28;20469;-78
2024/03/01 11:11:18;;;;;;;1.27;1.23;;;16.40;99.90;;;;;;5080294;28;20433;-78
2024/03/01 11:13:47;;;;;;;3.03;2.93;;;16.60;99.90;;;;;;5081796;28;20482;-78
2024/03/01 11:16:15;;;;;;;0.30;0.20;;;16.80;99.90;;;;;;5084200;28;20935;-78
2024/03/01 11:18:47;;;;;;;0.33;0.30;;;16.90;99.90;;;;;;5091972;28;20982;-79
2024/03/01 11:21:17;;;;;;;0.60;0.60;;;17.10;99.90;;;;;;5079678;28;20495;-78
2024/03/01 11:23:54;;;;;;;0.30;0.20;;;17.30;99.90;;;;;;5083276;28;20552;-79
2024/03/01 11:26:30;;;;;;;0.30;0.20;;;17.50;99.90;;;;;;5069883;28;20768;-78
2024/03/01 11:29:00;;;;;;;0.30;0.20;;;17.60;99.90;;;;;;5074765;28;20443;-78
2024/03/01 11:31:30;;;;;;;0.30;0.20;;;17.80;99.90;;;;;;5073467;28;20983;-79
2024/03/01 11:34:05;;;;;;;0.50;0.50;;;18.00;99.90;;;;;;5078070;28;20475;-79
2024/03/01 11:36:45;;;;;;;0.50;0.50;;;18.10;99.90;;;;;;5078699;28;20444;-78
2024/03/01 11:39:45;;;;;;;0.60;0.60;;;18.20;99.90;;;;;;5080218;28;20461;-78
2024/03/01 11:42:35;;;;;;;0.30;0.20;;;18.30;99.90;;;;;;5077082;28;20453;-78
2024/03/01 11:45:18;;;;;;;0.30;0.20;;;18.40;99.90;;;;;;5097649;27;20445;-78
2024/03/01 11:48:05;;;;;;;0.30;0.20;;;18.30;99.90;;;;;;5073065;28;20521;-78
2024/03/01 11:50:58;;;;;;;0.30;0.20;;;18.30;99.90;;;;;;5075797;28;20929;-78
2024/03/01 11:53:29;;;;;;;0.40;0.40;;;18.30;99.90;;;;;;5072649;28;20965;-78
2024/03/01 11:56:16;;;;;;;0.40;0.40;;;18.40;99.90;;;;;;5088831;28;20629;-78
2024/03/01 11:59:10;;;;;;;0.30;0.20;;;18.40;99.90;;;;;;5074890;28;20465;-78
2024/03/01 12:01:51;;;;;;;0.63;0.63;;;18.40;99.90;;;;;;5075638;28;20421;-79
2024/03/01 12:04:43;;;;;;;0.30;0.20;;;18.50;99.90;;;;;;5078017;28;20535;-78
2024/03/01 12:07:50;;;;;;;0.47;0.47;;;18.60;99.90;;;;;;5073437;28;20425;-78
2024/03/01 12:10:28;;;;;;;0.50;0.50;;;18.70;99.90;;;;;;5075414;28;20525;-78
2024/03/01 12:13:05;;;;;;;0.30;0.20;;;18.80;99.90;;;;;;5072820;28;20648;-78
2024/03/01 12:15:39;;;;;;;0.30;0.30;;;18.80;99.90;;;;;;5072441;28;21095;-78
2024/03/01 12:18:44;;;;;;;0.30;0.23;;;18.90;99.90;;;;;;5078744;28;20463;-78
2024/03/01 12:21:19;;;;;;;0.30;0.20;;;19.00;99.90;;;;;;5072547;28;21172;-78
2024/03/01 12:23:50;;;;;;;0.60;0.50;;;19.00;99.90;;;;;;5070735;28;20497;-78
2024/03/01 12:26:21;;;;;;;1.70;0.70;;;18.90;99.90;;;;;;5069413;28;20965;-78
2024/03/01 12:29:05;;;;;;;0.30;0.30;;;18.90;99.90;;;;;;5071650;28;20952;-79
2024/03/01 12:31:47;;;;;;;3.27;2.97;;;19.00;99.90;;;;;;5076134;28;20444;-78
2024/03/01 12:34:34;;;;;;;0.30;0.20;;;19.10;99.90;;;;;;5072718;28;20464;-78
2024/03/01 12:37:16;;;;;;;0.30;0.20;;;19.20;99.90;;;;;;5070653;28;20453;-78
2024/03/01 12:39:49;;;;;;;0.30;0.20;;;19.30;99.90;;;;;;5073107;28;20952;-78
2024/03/01 12:42:29;;;;;;;0.30;0.20;;;19.20;99.90;;;;;;5074068;28;20493;-78
2024/03/01 12:45:02;;;;;;;6.00;5.60;;;19.20;99.90;;;;;;5063870;28;20429;-78
2024/03/01 12:47:45;;;;;;;0.30;0.20;;;19.20;99.90;;;;;;5061793;28;20699;-78
2024/03/01 12:50:35;;;;;;;0.30;0.30;;;19.20;99.90;;;;;;5077188;28;20429;-79
2024/03/01 12:53:22;;;;;;;0.30;0.30;;;19.30;99.90;;;;;;5074351;28;20437;-78
2024/03/01 12:56:20;;;;;;;0.30;0.20;;;19.10;99.90;;;;;;5073927;28;20499;-78
2024/03/01 12:58:48;;;;;;;0.30;0.20;;;19.00;99.90;;;;;;5057552;28;20500;-78
2024/03/01 13:01:27;;;;;;;2.73;0.87;;;18.90;99.90;;;;;;5073694;28;20502;-78
2024/03/01 13:04:09;;;;;;;6.90;4.03;;;18.90;99.90;;;;;;5074231;28;20444;-78